sensor_id;sensor_type;location;lat;lon;timestamp;P1;durP1;ratioP1;P2;durP2;ratioP2
77061;SDS011;65989;51.686;5.138;2024-02-16T00:00:49;6.63;;;2.60;;
77061;SDS011;65989;51.686;5.138;2024-02-16T00:03:15;7.73;;;2.53;;
77061;SDS011;65989;51.686;5.138;2024-02-16T00:05:40;6.10;;;2.50;;
77061;SDS011;65989;51.686;5.138;2024-02-16T00:08:05;8.27;;;2.50;;
77061;SDS011;65989;51.686;5.138;2024-02-16T00:10:31;6.37;;;2.67;;
77061;SDS011;65989;51.686;5.138;2024-02-16T00:12:56;6.13;;;2.40;;
77061;SDS011;65989;51.686;5.138;2024-02-16T00:15:22;6.80;;;2.50;;
77061;SDS011;65989;51.686;5.138;2024-02-16T00:17:47;5.53;;;2.70;;
77061;SDS011;65989;51.686;5.138;2024-02-16T00:20:13;5.18;;;2.28;;
77061;SDS011;65989;51.686;5.138;2024-02-16T00:22:39;6.87;;;2.57;;
77061;SDS011;65989;51.686;5.138;2024-02-16T00:25:04;5.43;;;2.60;;
77061;SDS011;65989;51.686;5.138;2024-02-16T00:27:30;6.73;;;2.50;;
77061;SDS011;65989;51.686;5.138;2024-02-16T00:29:55;5.90;;;2.28;;
77061;SDS011;65989;51.686;5.138;2024-02-16T00:32:21;6.27;;;2.43;;
77061;SDS011;65989;51.686;5.138;2024-02-16T00:34:49;5.53;;;2.50;;
77061;SDS011;65989;51.686;5.138;2024-02-16T00:37:17;6.50;;;2.40;;
77061;SDS011;65989;51.686;5.138;2024-02-16T00:39:42;5.15;;;2.33;;
77061;SDS011;65989;51.686;5.138;2024-02-16T00:42:08;5.30;;;2.27;;
77061;SDS011;65989;51.686;5.138;2024-02-16T00:44:34;5.80;;;2.33;;
77061;SDS011;65989;51.686;5.138;2024-02-16T00:46:59;8.53;;;2.50;;
77061;SDS011;65989;51.686;5.138;2024-02-16T00:49:25;7.57;;;2.57;;
77061;SDS011;65989;51.686;5.138;2024-02-16T00:51:50;6.43;;;2.50;;
77061;SDS011;65989;51.686;5.138;2024-02-16T00:54:16;7.50;;;2.60;;
77061;SDS011;65989;51.686;5.138;2024-02-16T00:56:42;7.05;;;2.17;;
77061;SDS011;65989;51.686;5.138;2024-02-16T00:59:07;6.10;;;2.30;;
77061;SDS011;65989;51.686;5.138;2024-02-16T01:01:34;5.43;;;2.40;;
77061;SDS011;65989;51.686;5.138;2024-02-16T01:04:00;8.93;;;2.30;;
77061;SDS011;65989;51.686;5.138;2024-02-16T01:06:27;7.93;;;2.40;;
77061;SDS011;65989;51.686;5.138;2024-02-16T01:08:52;7.33;;;2.50;;
77061;SDS011;65989;51.686;5.138;2024-02-16T01:11:18;5.82;;;2.33;;
77061;SDS011;65989;51.686;5.138;2024-02-16T01:13:45;5.77;;;2.53;;
77061;SDS011;65989;51.686;5.138;2024-02-16T01:16:10;7.72;;;2.75;;
77061;SDS011;65989;51.686;5.138;2024-02-16T01:18:36;7.37;;;2.50;;
77061;SDS011;65989;51.686;5.138;2024-02-16T01:21:02;6.30;;;2.60;;
77061;SDS011;65989;51.686;5.138;2024-02-16T01:23:28;6.72;;;2.60;;
77061;SDS011;65989;51.686;5.138;2024-02-16T01:25:54;5.70;;;2.37;;
77061;SDS011;65989;51.686;5.138;2024-02-16T01:28:19;7.45;;;2.50;;
77061;SDS011;65989;51.686;5.138;2024-02-16T01:30:45;7.47;;;2.57;;
77061;SDS011;65989;51.686;5.138;2024-02-16T01:33:10;6.50;;;2.70;;
77061;SDS011;65989;51.686;5.138;2024-02-16T01:35:35;6.33;;;2.50;;
77061;SDS011;65989;51.686;5.138;2024-02-16T01:38:01;7.80;;;2.63;;
77061;SDS011;65989;51.686;5.138;2024-02-16T01:40:27;6.35;;;2.35;;
77061;SDS011;65989;51.686;5.138;2024-02-16T01:42:53;6.35;;;2.60;;
77061;SDS011;65989;51.686;5.138;2024-02-16T01:45:19;5.65;;;2.42;;
77061;SDS011;65989;51.686;5.138;2024-02-16T01:47:46;6.53;;;2.60;;
77061;SDS011;65989;51.686;5.138;2024-02-16T01:50:15;5.50;;;2.37;;
77061;SDS011;65989;51.686;5.138;2024-02-16T01:52:42;6.07;;;2.60;;
77061;SDS011;65989;51.686;5.138;2024-02-16T01:55:11;6.45;;;2.58;;
77061;SDS011;65989;51.686;5.138;2024-02-16T01:57:39;5.65;;;2.85;;
77061;SDS011;65989;51.686;5.138;2024-02-16T02:00:04;5.05;;;2.70;;
77061;SDS011;65989;51.686;5.138;2024-02-16T02:02:33;5.00;;;2.60;;
77061;SDS011;65989;51.686;5.138;2024-02-16T02:05:02;7.38;;;2.70;;
77061;SDS011;65989;51.686;5.138;2024-02-16T02:07:28;7.80;;;2.65;;
77061;SDS011;65989;51.686;5.138;2024-02-16T02:09:54;5.75;;;2.42;;
77061;SDS011;65989;51.686;5.138;2024-02-16T02:12:20;5.77;;;2.70;;
77061;SDS011;65989;51.686;5.138;2024-02-16T02:14:47;5.97;;;2.20;;
77061;SDS011;65989;51.686;5.138;2024-02-16T02:17:13;5.68;;;2.53;;
77061;SDS011;65989;51.686;5.138;2024-02-16T02:19:38;6.87;;;2.63;;
77061;SDS011;65989;51.686;5.138;2024-02-16T02:22:04;5.57;;;2.67;;
77061;SDS011;65989;51.686;5.138;2024-02-16T02:24:29;7.97;;;2.45;;
77061;SDS011;65989;51.686;5.138;2024-02-16T02:26:55;6.30;;;2.40;;
77061;SDS011;65989;51.686;5.138;2024-02-16T02:29:22;5.78;;;2.33;;
77061;SDS011;65989;51.686;5.138;2024-02-16T02:31:48;5.27;;;2.30;;
77061;SDS011;65989;51.686;5.138;2024-02-16T02:34:13;6.03;;;2.65;;
77061;SDS011;65989;51.686;5.138;2024-02-16T02:36:40;5.93;;;2.53;;
77061;SDS011;65989;51.686;5.138;2024-02-16T02:39:06;7.53;;;2.63;;
77061;SDS011;65989;51.686;5.138;2024-02-16T02:41:32;5.88;;;2.67;;
77061;SDS011;65989;51.686;5.138;2024-02-16T02:43:57;8.50;;;2.70;;
77061;SDS011;65989;51.686;5.138;2024-02-16T02:46:23;6.05;;;2.78;;
77061;SDS011;65989;51.686;5.138;2024-02-16T02:48:50;6.73;;;2.57;;
77061;SDS011;65989;51.686;5.138;2024-02-16T02:51:16;6.88;;;2.58;;
77061;SDS011;65989;51.686;5.138;2024-02-16T02:53:42;9.90;;;3.08;;
77061;SDS011;65989;51.686;5.138;2024-02-16T02:56:08;6.93;;;3.17;;
77061;SDS011;65989;51.686;5.138;2024-02-16T02:58:33;5.97;;;3.00;;
77061;SDS011;65989;51.686;5.138;2024-02-16T03:00:59;7.67;;;3.37;;
77061;SDS011;65989;51.686;5.138;2024-02-16T03:03:24;10.80;;;3.27;;
77061;SDS011;65989;51.686;5.138;2024-02-16T03:05:50;6.30;;;3.13;;
77061;SDS011;65989;51.686;5.138;2024-02-16T03:08:15;8.18;;;2.70;;
77061;SDS011;65989;51.686;5.138;2024-02-16T03:10:40;6.43;;;2.83;;
77061;SDS011;65989;51.686;5.138;2024-02-16T03:13:06;5.93;;;3.00;;
77061;SDS011;65989;51.686;5.138;2024-02-16T03:15:37;5.43;;;2.70;;
77061;SDS011;65989;51.686;5.138;2024-02-16T03:18:03;6.50;;;3.10;;
77061;SDS011;65989;51.686;5.138;2024-02-16T03:20:34;6.93;;;2.67;;
77061;SDS011;65989;51.686;5.138;2024-02-16T03:23:02;5.28;;;2.80;;
77061;SDS011;65989;51.686;5.138;2024-02-16T03:25:28;6.18;;;2.90;;
77061;SDS011;65989;51.686;5.138;2024-02-16T03:27:54;5.75;;;2.95;;
77061;SDS011;65989;51.686;5.138;2024-02-16T03:30:19;8.47;;;2.97;;
77061;SDS011;65989;51.686;5.138;2024-02-16T03:32:48;5.53;;;2.77;;
77061;SDS011;65989;51.686;5.138;2024-02-16T03:35:14;6.80;;;2.70;;
77061;SDS011;65989;51.686;5.138;2024-02-16T03:37:40;9.43;;;2.83;;
77061;SDS011;65989;51.686;5.138;2024-02-16T03:40:07;7.70;;;2.88;;
77061;SDS011;65989;51.686;5.138;2024-02-16T03:42:35;5.63;;;2.70;;
77061;SDS011;65989;51.686;5.138;2024-02-16T03:45:01;9.00;;;2.78;;
77061;SDS011;65989;51.686;5.138;2024-02-16T03:47:27;7.93;;;2.92;;
77061;SDS011;65989;51.686;5.138;2024-02-16T03:49:53;7.13;;;2.90;;
77061;SDS011;65989;51.686;5.138;2024-02-16T03:52:18;5.93;;;3.03;;
77061;SDS011;65989;51.686;5.138;2024-02-16T03:54:44;8.45;;;2.83;;
77061;SDS011;65989;51.686;5.138;2024-02-16T03:57:13;5.70;;;2.75;;
77061;SDS011;65989;51.686;5.138;2024-02-16T03:59:39;8.10;;;2.60;;
77061;SDS011;65989;51.686;5.138;2024-02-16T04:02:04;6.60;;;2.80;;
77061;SDS011;65989;51.686;5.138;2024-02-16T04:04:29;5.67;;;2.77;;
77061;SDS011;65989;51.686;5.138;2024-02-16T04:06:55;11.27;;;3.00;;
77061;SDS011;65989;51.686;5.138;2024-02-16T04:09:20;5.90;;;2.90;;
77061;SDS011;65989;51.686;5.138;2024-02-16T04:11:46;5.83;;;2.87;;
77061;SDS011;65989;51.686;5.138;2024-02-16T04:14:11;6.83;;;2.60;;
77061;SDS011;65989;51.686;5.138;2024-02-16T04:16:37;6.93;;;2.80;;
77061;SDS011;65989;51.686;5.138;2024-02-16T04:19:02;8.23;;;3.20;;
77061;SDS011;65989;51.686;5.138;2024-02-16T04:21:28;5.57;;;2.70;;
77061;SDS011;65989;51.686;5.138;2024-02-16T04:23:53;7.73;;;3.10;;
77061;SDS011;65989;51.686;5.138;2024-02-16T04:26:18;9.00;;;3.00;;
77061;SDS011;65989;51.686;5.138;2024-02-16T04:28:44;5.83;;;2.70;;
77061;SDS011;65989;51.686;5.138;2024-02-16T04:31:09;5.13;;;2.77;;
77061;SDS011;65989;51.686;5.138;2024-02-16T04:33:35;6.00;;;2.80;;
77061;SDS011;65989;51.686;5.138;2024-02-16T04:36:00;7.50;;;2.90;;
77061;SDS011;65989;51.686;5.138;2024-02-16T04:38:25;6.13;;;2.50;;
77061;SDS011;65989;51.686;5.138;2024-02-16T04:40:51;10.00;;;3.10;;
77061;SDS011;65989;51.686;5.138;2024-02-16T04:43:16;5.03;;;2.63;;
77061;SDS011;65989;51.686;5.138;2024-02-16T04:45:42;5.80;;;2.77;;
77061;SDS011;65989;51.686;5.138;2024-02-16T04:48:08;7.72;;;3.08;;
77061;SDS011;65989;51.686;5.138;2024-02-16T04:50:33;7.27;;;2.77;;
77061;SDS011;65989;51.686;5.138;2024-02-16T04:53:00;6.55;;;2.60;;
77061;SDS011;65989;51.686;5.138;2024-02-16T04:55:28;5.97;;;3.00;;
77061;SDS011;65989;51.686;5.138;2024-02-16T04:57:55;7.03;;;2.90;;
77061;SDS011;65989;51.686;5.138;2024-02-16T05:00:20;11.50;;;3.43;;
77061;SDS011;65989;51.686;5.138;2024-02-16T05:02:46;5.82;;;2.65;;
77061;SDS011;65989;51.686;5.138;2024-02-16T05:05:12;8.30;;;2.53;;
77061;SDS011;65989;51.686;5.138;2024-02-16T05:07:37;8.57;;;2.70;;
77061;SDS011;65989;51.686;5.138;2024-02-16T05:10:03;5.93;;;2.50;;
77061;SDS011;65989;51.686;5.138;2024-02-16T05:12:29;7.45;;;2.67;;
77061;SDS011;65989;51.686;5.138;2024-02-16T05:14:54;8.00;;;3.07;;
77061;SDS011;65989;51.686;5.138;2024-02-16T05:17:20;7.50;;;3.30;;
77061;SDS011;65989;51.686;5.138;2024-02-16T05:19:47;7.90;;;3.15;;
77061;SDS011;65989;51.686;5.138;2024-02-16T05:22:13;6.13;;;2.80;;
77061;SDS011;65989;51.686;5.138;2024-02-16T05:24:39;6.32;;;2.80;;
77061;SDS011;65989;51.686;5.138;2024-02-16T05:27:04;7.20;;;2.70;;
77061;SDS011;65989;51.686;5.138;2024-02-16T05:29:30;7.80;;;2.73;;
77061;SDS011;65989;51.686;5.138;2024-02-16T05:31:55;5.83;;;3.03;;
77061;SDS011;65989;51.686;5.138;2024-02-16T05:34:20;7.00;;;2.67;;
77061;SDS011;65989;51.686;5.138;2024-02-16T05:36:46;8.10;;;2.80;;
77061;SDS011;65989;51.686;5.138;2024-02-16T05:39:12;7.45;;;3.00;;
77061;SDS011;65989;51.686;5.138;2024-02-16T05:41:52;7.93;;;2.70;;
77061;SDS011;65989;51.686;5.138;2024-02-16T05:44:18;9.20;;;2.73;;
77061;SDS011;65989;51.686;5.138;2024-02-16T05:46:44;7.18;;;3.00;;
77061;SDS011;65989;51.686;5.138;2024-02-16T05:49:11;7.15;;;2.90;;
77061;SDS011;65989;51.686;5.138;2024-02-16T05:51:37;7.07;;;2.73;;
77061;SDS011;65989;51.686;5.138;2024-02-16T05:54:06;6.63;;;2.88;;
77061;SDS011;65989;51.686;5.138;2024-02-16T05:56:32;9.43;;;3.00;;
77061;SDS011;65989;51.686;5.138;2024-02-16T05:58:59;9.73;;;3.40;;
77061;SDS011;65989;51.686;5.138;2024-02-16T06:01:25;7.60;;;2.90;;
77061;SDS011;65989;51.686;5.138;2024-02-16T06:03:51;8.13;;;3.30;;
77061;SDS011;65989;51.686;5.138;2024-02-16T06:06:17;6.13;;;3.10;;
77061;SDS011;65989;51.686;5.138;2024-02-16T06:08:42;9.50;;;2.93;;
77061;SDS011;65989;51.686;5.138;2024-02-16T06:11:07;6.88;;;2.97;;
77061;SDS011;65989;51.686;5.138;2024-02-16T06:13:33;6.17;;;2.90;;
77061;SDS011;65989;51.686;5.138;2024-02-16T06:15:58;8.23;;;3.20;;
77061;SDS011;65989;51.686;5.138;2024-02-16T06:18:23;6.17;;;3.07;;
77061;SDS011;65989;51.686;5.138;2024-02-16T06:20:49;7.33;;;3.10;;
77061;SDS011;65989;51.686;5.138;2024-02-16T06:23:14;6.30;;;2.80;;
77061;SDS011;65989;51.686;5.138;2024-02-16T06:25:42;7.13;;;2.80;;
77061;SDS011;65989;51.686;5.138;2024-02-16T06:28:08;7.75;;;3.22;;
77061;SDS011;65989;51.686;5.138;2024-02-16T06:30:33;6.90;;;3.10;;
77061;SDS011;65989;51.686;5.138;2024-02-16T06:32:58;8.60;;;3.20;;
77061;SDS011;65989;51.686;5.138;2024-02-16T06:35:25;8.02;;;3.03;;
77061;SDS011;65989;51.686;5.138;2024-02-16T06:37:50;8.43;;;3.40;;
77061;SDS011;65989;51.686;5.138;2024-02-16T06:40:16;6.90;;;2.90;;
77061;SDS011;65989;51.686;5.138;2024-02-16T06:42:42;7.67;;;3.03;;
77061;SDS011;65989;51.686;5.138;2024-02-16T06:45:07;9.00;;;3.40;;
77061;SDS011;65989;51.686;5.138;2024-02-16T06:47:33;8.90;;;3.07;;
77061;SDS011;65989;51.686;5.138;2024-02-16T06:49:58;6.43;;;2.77;;
77061;SDS011;65989;51.686;5.138;2024-02-16T06:52:24;7.85;;;2.78;;
77061;SDS011;65989;51.686;5.138;2024-02-16T06:54:49;9.27;;;3.40;;
77061;SDS011;65989;51.686;5.138;2024-02-16T06:57:15;8.90;;;3.33;;
77061;SDS011;65989;51.686;5.138;2024-02-16T06:59:41;10.13;;;3.40;;
77061;SDS011;65989;51.686;5.138;2024-02-16T07:02:06;7.80;;;3.37;;
77061;SDS011;65989;51.686;5.138;2024-02-16T07:04:32;7.28;;;3.40;;
77061;SDS011;65989;51.686;5.138;2024-02-16T07:06:57;8.10;;;3.30;;
77061;SDS011;65989;51.686;5.138;2024-02-16T07:09:23;7.83;;;3.50;;
77061;SDS011;65989;51.686;5.138;2024-02-16T07:11:48;8.63;;;3.50;;
77061;SDS011;65989;51.686;5.138;2024-02-16T07:14:15;11.90;;;3.60;;
77061;SDS011;65989;51.686;5.138;2024-02-16T07:16:41;9.02;;;3.30;;
77061;SDS011;65989;51.686;5.138;2024-02-16T07:19:06;8.70;;;3.40;;
77061;SDS011;65989;51.686;5.138;2024-02-16T07:21:32;7.97;;;3.57;;
77061;SDS011;65989;51.686;5.138;2024-02-16T07:23:57;9.57;;;3.23;;
77061;SDS011;65989;51.686;5.138;2024-02-16T07:26:23;9.18;;;3.15;;
77061;SDS011;65989;51.686;5.138;2024-02-16T07:28:49;7.70;;;3.60;;
77061;SDS011;65989;51.686;5.138;2024-02-16T07:31:14;7.40;;;3.20;;
77061;SDS011;65989;51.686;5.138;2024-02-16T07:33:40;9.35;;;3.65;;
77061;SDS011;65989;51.686;5.138;2024-02-16T07:36:06;8.95;;;3.55;;
77061;SDS011;65989;51.686;5.138;2024-02-16T07:38:32;9.52;;;3.72;;
77061;SDS011;65989;51.686;5.138;2024-02-16T07:40:58;9.77;;;3.80;;
77061;SDS011;65989;51.686;5.138;2024-02-16T07:43:24;10.60;;;3.65;;
77061;SDS011;65989;51.686;5.138;2024-02-16T07:45:52;12.18;;;3.78;;
77061;SDS011;65989;51.686;5.138;2024-02-16T07:48:19;18.27;;;4.57;;
77061;SDS011;65989;51.686;5.138;2024-02-16T07:50:46;7.63;;;3.40;;
77061;SDS011;65989;51.686;5.138;2024-02-16T07:53:12;8.07;;;3.17;;
77061;SDS011;65989;51.686;5.138;2024-02-16T07:55:37;9.03;;;3.90;;
77061;SDS011;65989;51.686;5.138;2024-02-16T07:58:03;7.73;;;3.40;;
77061;SDS011;65989;51.686;5.138;2024-02-16T08:00:28;11.10;;;3.90;;
77061;SDS011;65989;51.686;5.138;2024-02-16T08:02:54;7.83;;;3.20;;
77061;SDS011;65989;51.686;5.138;2024-02-16T08:05:19;8.27;;;3.70;;
77061;SDS011;65989;51.686;5.138;2024-02-16T08:07:45;10.00;;;3.65;;
77061;SDS011;65989;51.686;5.138;2024-02-16T08:10:12;8.77;;;3.50;;
77061;SDS011;65989;51.686;5.138;2024-02-16T08:12:37;10.48;;;3.60;;
77061;SDS011;65989;51.686;5.138;2024-02-16T08:15:03;9.33;;;3.50;;
77061;SDS011;65989;51.686;5.138;2024-02-16T08:17:32;10.40;;;3.70;;
77061;SDS011;65989;51.686;5.138;2024-02-16T08:19:59;12.05;;;3.65;;
77061;SDS011;65989;51.686;5.138;2024-02-16T08:22:24;11.90;;;3.80;;
77061;SDS011;65989;51.686;5.138;2024-02-16T08:24:50;9.50;;;3.77;;
77061;SDS011;65989;51.686;5.138;2024-02-16T08:27:15;10.98;;;3.63;;
77061;SDS011;65989;51.686;5.138;2024-02-16T08:29:41;10.00;;;4.00;;
77061;SDS011;65989;51.686;5.138;2024-02-16T08:32:07;8.07;;;4.03;;
77061;SDS011;65989;51.686;5.138;2024-02-16T08:34:34;10.23;;;4.55;;
77061;SDS011;65989;51.686;5.138;2024-02-16T08:37:02;10.40;;;3.92;;
77061;SDS011;65989;51.686;5.138;2024-02-16T08:39:29;12.90;;;4.57;;
77061;SDS011;65989;51.686;5.138;2024-02-16T08:41:54;12.87;;;4.60;;
77061;SDS011;65989;51.686;5.138;2024-02-16T08:44:20;10.98;;;4.15;;
77061;SDS011;65989;51.686;5.138;2024-02-16T08:46:45;13.33;;;4.30;;
77061;SDS011;65989;51.686;5.138;2024-02-16T08:49:13;9.30;;;4.10;;
77061;SDS011;65989;51.686;5.138;2024-02-16T08:51:39;10.97;;;4.07;;
77061;SDS011;65989;51.686;5.138;2024-02-16T08:54:04;10.75;;;3.85;;
77061;SDS011;65989;51.686;5.138;2024-02-16T08:56:30;11.23;;;4.17;;
77061;SDS011;65989;51.686;5.138;2024-02-16T08:58:56;7.15;;;3.78;;
77061;SDS011;65989;51.686;5.138;2024-02-16T09:01:34;8.90;;;4.10;;
77061;SDS011;65989;51.686;5.138;2024-02-16T09:04:01;11.20;;;4.28;;
77061;SDS011;65989;51.686;5.138;2024-02-16T09:06:27;10.73;;;4.33;;
77061;SDS011;65989;51.686;5.138;2024-02-16T09:08:53;9.10;;;4.05;;
77061;SDS011;65989;51.686;5.138;2024-02-16T09:11:18;15.73;;;4.70;;
77061;SDS011;65989;51.686;5.138;2024-02-16T09:13:44;10.67;;;4.30;;
77061;SDS011;65989;51.686;5.138;2024-02-16T09:16:09;9.93;;;4.50;;
77061;SDS011;65989;51.686;5.138;2024-02-16T09:18:35;8.97;;;4.13;;
77061;SDS011;65989;51.686;5.138;2024-02-16T09:21:02;10.63;;;4.55;;
77061;SDS011;65989;51.686;5.138;2024-02-16T09:23:28;13.50;;;4.45;;
77061;SDS011;65989;51.686;5.138;2024-02-16T09:25:54;7.93;;;3.97;;
77061;SDS011;65989;51.686;5.138;2024-02-16T09:28:20;10.52;;;4.22;;
77061;SDS011;65989;51.686;5.138;2024-02-16T09:30:45;10.60;;;3.97;;
77061;SDS011;65989;51.686;5.138;2024-02-16T09:33:11;11.75;;;4.05;;
77061;SDS011;65989;51.686;5.138;2024-02-16T09:35:36;12.67;;;4.33;;
77061;SDS011;65989;51.686;5.138;2024-02-16T09:38:02;9.35;;;4.05;;
77061;SDS011;65989;51.686;5.138;2024-02-16T09:40:28;14.23;;;4.30;;
77061;SDS011;65989;51.686;5.138;2024-02-16T09:42:53;8.73;;;4.23;;
77061;SDS011;65989;51.686;5.138;2024-02-16T09:45:19;8.45;;;4.13;;
77061;SDS011;65989;51.686;5.138;2024-02-16T09:47:48;9.73;;;4.10;;
77061;SDS011;65989;51.686;5.138;2024-02-16T09:50:15;12.00;;;4.00;;
77061;SDS011;65989;51.686;5.138;2024-02-16T09:52:41;8.23;;;4.07;;
77061;SDS011;65989;51.686;5.138;2024-02-16T09:55:13;10.80;;;4.25;;
77061;SDS011;65989;51.686;5.138;2024-02-16T09:57:39;11.23;;;4.72;;
77061;SDS011;65989;51.686;5.138;2024-02-16T10:00:04;12.30;;;4.57;;
77061;SDS011;65989;51.686;5.138;2024-02-16T10:02:40;13.00;;;4.83;;
77061;SDS011;65989;51.686;5.138;2024-02-16T10:05:29;12.00;;;4.65;;
77061;SDS011;65989;51.686;5.138;2024-02-16T10:07:55;11.45;;;4.25;;
77061;SDS011;65989;51.686;5.138;2024-02-16T10:10:24;9.90;;;4.23;;
77061;SDS011;65989;51.686;5.138;2024-02-16T10:13:04;13.35;;;4.93;;
77061;SDS011;65989;51.686;5.138;2024-02-16T10:15:30;14.38;;;5.00;;
77061;SDS011;65989;51.686;5.138;2024-02-16T10:18:00;11.80;;;5.03;;
77061;SDS011;65989;51.686;5.138;2024-02-16T10:20:29;11.43;;;4.90;;
77061;SDS011;65989;51.686;5.138;2024-02-16T10:23:29;11.07;;;5.00;;
77061;SDS011;65989;51.686;5.138;2024-02-16T10:25:47;9.70;;;4.90;;
77061;SDS011;65989;51.686;5.138;2024-02-16T10:28:12;13.10;;;5.60;;
77061;SDS011;65989;51.686;5.138;2024-02-16T10:30:40;11.13;;;5.57;;
77061;SDS011;65989;51.686;5.138;2024-02-16T10:33:09;11.38;;;5.50;;
77061;SDS011;65989;51.686;5.138;2024-02-16T10:35:37;11.93;;;5.53;;
77061;SDS011;65989;51.686;5.138;2024-02-16T10:38:07;10.70;;;6.00;;
77061;SDS011;65989;51.686;5.138;2024-02-16T10:40:37;16.02;;;6.43;;
77061;SDS011;65989;51.686;5.138;2024-02-16T10:43:04;16.77;;;6.70;;
77061;SDS011;65989;51.686;5.138;2024-02-16T10:45:36;14.93;;;6.53;;
77061;SDS011;65989;51.686;5.138;2024-02-16T10:48:03;12.50;;;7.05;;
77061;SDS011;65989;51.686;5.138;2024-02-16T10:50:30;14.83;;;7.43;;
77061;SDS011;65989;51.686;5.138;2024-02-16T10:52:58;14.23;;;7.95;;
77061;SDS011;65989;51.686;5.138;2024-02-16T10:55:26;14.95;;;7.88;;
77061;SDS011;65989;51.686;5.138;2024-02-16T10:57:52;14.77;;;8.02;;
77061;SDS011;65989;51.686;5.138;2024-02-16T11:00:20;14.70;;;8.15;;
77061;SDS011;65989;51.686;5.138;2024-02-16T11:02:55;13.00;;;7.67;;
77061;SDS011;65989;51.686;5.138;2024-02-16T11:05:36;18.65;;;8.55;;
77061;SDS011;65989;51.686;5.138;2024-02-16T11:08:11;14.87;;;8.40;;
77061;SDS011;65989;51.686;5.138;2024-02-16T11:10:38;17.15;;;9.10;;
77061;SDS011;65989;51.686;5.138;2024-02-16T11:13:03;16.00;;;8.43;;
77061;SDS011;65989;51.686;5.138;2024-02-16T11:15:32;17.40;;;8.13;;
77061;SDS011;65989;51.686;5.138;2024-02-16T11:18:02;14.20;;;7.85;;
77061;SDS011;65989;51.686;5.138;2024-02-16T11:20:28;14.88;;;7.95;;
77061;SDS011;65989;51.686;5.138;2024-02-16T11:23:10;18.88;;;8.98;;
77061;SDS011;65989;51.686;5.138;2024-02-16T11:25:38;12.18;;;7.60;;
77061;SDS011;65989;51.686;5.138;2024-02-16T11:28:04;13.50;;;7.20;;
77061;SDS011;65989;51.686;5.138;2024-02-16T11:30:33;13.15;;;7.93;;
77061;SDS011;65989;51.686;5.138;2024-02-16T11:33:02;12.80;;;7.63;;
77061;SDS011;65989;51.686;5.138;2024-02-16T11:35:28;14.23;;;7.40;;
77061;SDS011;65989;51.686;5.138;2024-02-16T11:37:55;18.27;;;7.90;;
77061;SDS011;65989;51.686;5.138;2024-02-16T11:40:21;12.27;;;7.70;;
77061;SDS011;65989;51.686;5.138;2024-02-16T11:42:46;11.82;;;7.13;;
77061;SDS011;65989;51.686;5.138;2024-02-16T11:45:12;11.83;;;7.57;;
77061;SDS011;65989;51.686;5.138;2024-02-16T11:47:38;14.10;;;7.33;;
77061;SDS011;65989;51.686;5.138;2024-02-16T11:50:07;13.45;;;7.53;;
77061;SDS011;65989;51.686;5.138;2024-02-16T11:52:39;28.83;;;14.38;;
77061;SDS011;65989;51.686;5.138;2024-02-16T11:55:07;20.08;;;13.25;;
77061;SDS011;65989;51.686;5.138;2024-02-16T11:57:33;22.07;;;11.53;;
77061;SDS011;65989;51.686;5.138;2024-02-16T12:00:00;14.02;;;7.85;;
77061;SDS011;65989;51.686;5.138;2024-02-16T12:02:29;11.75;;;7.88;;
77061;SDS011;65989;51.686;5.138;2024-02-16T12:04:58;12.77;;;6.93;;
77061;SDS011;65989;51.686;5.138;2024-02-16T12:07:27;12.38;;;7.00;;
77061;SDS011;65989;51.686;5.138;2024-02-16T12:09:59;11.40;;;6.63;;
77061;SDS011;65989;51.686;5.138;2024-02-16T12:12:28;13.63;;;7.40;;
77061;SDS011;65989;51.686;5.138;2024-02-16T12:14:56;11.43;;;7.10;;
77061;SDS011;65989;51.686;5.138;2024-02-16T12:17:23;12.50;;;6.55;;
77061;SDS011;65989;51.686;5.138;2024-02-16T12:19:49;13.13;;;7.40;;
77061;SDS011;65989;51.686;5.138;2024-02-16T12:22:22;12.75;;;6.85;;
77061;SDS011;65989;51.686;5.138;2024-02-16T12:24:49;11.32;;;7.13;;
77061;SDS011;65989;51.686;5.138;2024-02-16T12:27:17;11.65;;;7.53;;
77061;SDS011;65989;51.686;5.138;2024-02-16T12:29:43;12.87;;;6.77;;
77061;SDS011;65989;51.686;5.138;2024-02-16T12:32:09;11.30;;;7.33;;
77061;SDS011;65989;51.686;5.138;2024-02-16T12:34:37;13.05;;;7.47;;
77061;SDS011;65989;51.686;5.138;2024-02-16T12:37:06;11.75;;;6.60;;
77061;SDS011;65989;51.686;5.138;2024-02-16T12:39:36;12.47;;;7.50;;
77061;SDS011;65989;51.686;5.138;2024-02-16T12:42:02;13.80;;;7.55;;
77061;SDS011;65989;51.686;5.138;2024-02-16T12:44:28;14.60;;;7.97;;
77061;SDS011;65989;51.686;5.138;2024-02-16T12:46:53;15.73;;;7.73;;
77061;SDS011;65989;51.686;5.138;2024-02-16T12:49:19;13.10;;;8.10;;
77061;SDS011;65989;51.686;5.138;2024-02-16T12:51:47;14.20;;;7.70;;
77061;SDS011;65989;51.686;5.138;2024-02-16T12:54:13;15.20;;;7.80;;
77061;SDS011;65989;51.686;5.138;2024-02-16T12:56:42;16.90;;;7.32;;
77061;SDS011;65989;51.686;5.138;2024-02-16T12:59:09;14.52;;;7.05;;
77061;SDS011;65989;51.686;5.138;2024-02-16T13:01:35;12.30;;;7.00;;
77061;SDS011;65989;51.686;5.138;2024-02-16T13:04:00;13.33;;;7.20;;
77061;SDS011;65989;51.686;5.138;2024-02-16T13:06:26;13.52;;;7.00;;
77061;SDS011;65989;51.686;5.138;2024-02-16T13:08:51;12.90;;;6.87;;
77061;SDS011;65989;51.686;5.138;2024-02-16T13:11:17;12.00;;;6.87;;
77061;SDS011;65989;51.686;5.138;2024-02-16T13:13:43;13.10;;;6.78;;
77061;SDS011;65989;51.686;5.138;2024-02-16T13:16:08;12.90;;;7.13;;
77061;SDS011;65989;51.686;5.138;2024-02-16T13:18:33;11.40;;;7.07;;
77061;SDS011;65989;51.686;5.138;2024-02-16T13:20:59;11.60;;;7.15;;
77061;SDS011;65989;51.686;5.138;2024-02-16T13:23:24;14.60;;;7.10;;
77061;SDS011;65989;51.686;5.138;2024-02-16T13:25:50;13.63;;;7.40;;
77061;SDS011;65989;51.686;5.138;2024-02-16T13:28:15;13.73;;;7.50;;
77061;SDS011;65989;51.686;5.138;2024-02-16T13:30:41;12.55;;;7.22;;
77061;SDS011;65989;51.686;5.138;2024-02-16T13:33:07;12.65;;;6.90;;
77061;SDS011;65989;51.686;5.138;2024-02-16T13:35:34;11.88;;;6.95;;
77061;SDS011;65989;51.686;5.138;2024-02-16T13:38:00;10.23;;;6.60;;
77061;SDS011;65989;51.686;5.138;2024-02-16T13:40:26;12.30;;;6.88;;
77061;SDS011;65989;51.686;5.138;2024-02-16T13:42:52;10.53;;;6.80;;
77061;SDS011;65989;51.686;5.138;2024-02-16T13:45:20;9.25;;;7.03;;
77061;SDS011;65989;51.686;5.138;2024-02-16T13:47:45;11.77;;;7.70;;
77061;SDS011;65989;51.686;5.138;2024-02-16T13:50:11;14.13;;;7.40;;
77061;SDS011;65989;51.686;5.138;2024-02-16T13:52:36;11.38;;;8.10;;
77061;SDS011;65989;51.686;5.138;2024-02-16T13:55:02;11.67;;;7.90;;
77061;SDS011;65989;51.686;5.138;2024-02-16T13:57:27;11.65;;;8.18;;
77061;SDS011;65989;51.686;5.138;2024-02-16T13:59:53;11.40;;;7.67;;
77061;SDS011;65989;51.686;5.138;2024-02-16T14:02:18;14.03;;;8.23;;
77061;SDS011;65989;51.686;5.138;2024-02-16T14:04:44;12.48;;;8.02;;
77061;SDS011;65989;51.686;5.138;2024-02-16T14:07:11;12.95;;;7.70;;
77061;SDS011;65989;51.686;5.138;2024-02-16T14:09:36;12.20;;;7.60;;
77061;SDS011;65989;51.686;5.138;2024-02-16T14:12:02;12.60;;;7.97;;
77061;SDS011;65989;51.686;5.138;2024-02-16T14:14:28;11.80;;;7.82;;
77061;SDS011;65989;51.686;5.138;2024-02-16T14:16:53;12.30;;;7.47;;
77061;SDS011;65989;51.686;5.138;2024-02-16T14:19:19;11.50;;;7.53;;
77061;SDS011;65989;51.686;5.138;2024-02-16T14:21:45;11.57;;;7.30;;
77061;SDS011;65989;51.686;5.138;2024-02-16T14:24:12;9.88;;;7.20;;
77061;SDS011;65989;51.686;5.138;2024-02-16T14:26:41;12.60;;;7.00;;
77061;SDS011;65989;51.686;5.138;2024-02-16T14:29:07;10.80;;;7.13;;
77061;SDS011;65989;51.686;5.138;2024-02-16T14:31:33;12.07;;;7.53;;
77061;SDS011;65989;51.686;5.138;2024-02-16T14:33:59;11.38;;;7.32;;
77061;SDS011;65989;51.686;5.138;2024-02-16T14:36:25;10.37;;;6.67;;
77061;SDS011;65989;51.686;5.138;2024-02-16T14:38:50;10.90;;;6.65;;